Time;durP1;ratioP1;P1;durP2;ratioP2;P2;SDS_P1;SDS_P2;PMS_P1;PMS_P2;Temp;Humidity;BMP_temperature;BMP_pressure;BME280_temperature;BME280_humidity;BME280_pressure;Samples;Min_cycle;Max_cycle;Signal;HPM_P1;HPM_P2
2022/11/24 00:01:02;;;;;;;8.80;3.10;;;;;;;;;;5012762;28;20065;-79
2022/11/24 00:03:28;;;;;;;8.05;2.92;;;;;;;;;;5012746;28;20108;-79
2022/11/24 00:05:53;;;;;;;10.40;3.05;;;;;;;;;;5012333;28;20129;-78
2022/11/24 00:08:19;;;;;;;8.90;2.67;;;;;;;;;;5012670;28;20037;-79
2022/11/24 00:10:44;;;;;;;8.93;3.22;;;;;;;;;;5012365;28;20444;-79
2022/11/24 00:13:09;;;;;;;5.78;2.65;;;;;;;;;;5013185;28;20124;-79
2022/11/24 00:15:35;;;;;;;7.32;2.95;;;;;;;;;;5012175;28;20030;-79
2022/11/24 00:18:00;;;;;;;9.32;2.90;;;;;;;;;;4995655;28;20554;-79
2022/11/24 00:20:26;;;;;;;11.77;2.70;;;;;;;;;;5013505;28;20412;-79
2022/11/24 00:22:51;;;;;;;7.97;2.80;;;;;;;;;;5013563;28;20164;-79
2022/11/24 00:25:16;;;;;;;9.43;2.45;;;;;;;;;;4995759;28;20037;-79
2022/11/24 00:27:42;;;;;;;8.45;2.53;;;;;;;;;;5013186;28;20084;-79
2022/11/24 00:30:08;;;;;;;8.57;2.78;;;;;;;;;;5013164;28;20033;-80
2022/11/24 00:32:34;;;;;;;8.65;2.58;;;;;;;;;;5013814;28;20030;-79
2022/11/24 00:34:59;;;;;;;10.13;2.50;;;;;;;;;;5012448;28;20361;-80
2022/11/24 00:37:24;;;;;;;9.55;2.45;;;;;;;;;;5013284;28;20113;-79
2022/11/24 00:39:50;;;;;;;9.43;2.92;;;;;;;;;;5012575;28;20124;-79
2022/11/24 00:42:15;;;;;;;10.77;3.15;;;;;;;;;;5013025;28;20041;-79
2022/11/24 00:44:41;;;;;;;9.90;2.83;;;;;;;;;;5012308;28;20083;-79
2022/11/24 00:47:06;;;;;;;8.32;2.80;;;;;;;;;;4995178;28;20477;-79
2022/11/24 00:49:32;;;;;;;11.82;3.13;;;;;;;;;;5011796;28;20059;-79
2022/11/24 00:51:57;;;;;;;7.30;2.50;;;;;;;;;;5011724;28;20127;-78
2022/11/24 00:54:22;;;;;;;7.63;2.40;;;;;;;;;;5012951;28;20113;-78
2022/11/24 00:56:48;;;;;;;8.48;2.58;;;;;;;;;;4995214;28;20469;-79
2022/11/24 00:59:13;;;;;;;12.35;2.38;;;;;;;;;;5013053;28;20040;-79
2022/11/24 01:01:38;;;;;;;8.18;2.35;;;;;;;;;;5012807;28;20104;-79
2022/11/24 01:04:04;;;;;;;6.07;2.47;;;;;;;;;;5012178;28;20026;-79
2022/11/24 01:06:31;;;;;;;8.80;2.58;;;;;;;;;;5011529;28;20034;-79
2022/11/24 01:08:57;;;;;;;10.95;2.90;;;;;;;;;;4979236;28;20495;-79
2022/11/24 01:11:25;;;;;;;10.30;2.47;;;;;;;;;;5028416;28;20105;-79
2022/11/24 01:13:56;;;;;;;10.25;2.90;;;;;;;;;;4995238;28;20036;-79
2022/11/24 01:16:27;;;;;;;9.90;2.58;;;;;;;;;;5011600;28;20022;-79
2022/11/24 01:18:53;;;;;;;8.07;2.47;;;;;;;;;;5027888;28;20080;-78
2022/11/24 01:21:19;;;;;;;8.68;2.38;;;;;;;;;;4995242;28;20034;-79
2022/11/24 01:23:44;;;;;;;9.68;2.72;;;;;;;;;;5015375;28;20105;-78
2022/11/24 01:26:12;;;;;;;9.95;2.65;;;;;;;;;;5015268;28;20022;-78
2022/11/24 01:28:38;;;;;;;10.90;2.47;;;;;;;;;;5016546;28;20357;-78
2022/11/24 01:31:05;;;;;;;7.40;2.88;;;;;;;;;;5015211;28;20036;-79
2022/11/24 01:33:31;;;;;;;10.13;3.08;;;;;;;;;;5015228;28;20018;-79
2022/11/24 01:35:57;;;;;;;7.25;2.70;;;;;;;;;;4999049;28;20032;-79
2022/11/24 01:38:23;;;;;;;7.55;2.65;;;;;;;;;;4999171;28;20038;-79
2022/11/24 01:40:48;;;;;;;7.22;2.47;;;;;;;;;;5014825;28;20046;-79
2022/11/24 01:43:19;;;;;;;9.77;2.70;;;;;;;;;;5015641;28;20440;-79
2022/11/24 01:45:46;;;;;;;9.27;3.00;;;;;;;;;;5031375;28;20056;-79
2022/11/24 01:48:25;;;;;;;7.22;2.08;;;;;;;;;;4999916;28;20033;-78
2022/11/24 01:51:04;;;;;;;9.18;2.80;;;;;;;;;;5014884;28;20028;-79
2022/11/24 01:53:29;;;;;;;9.88;2.55;;;;;;;;;;5015077;28;20076;-78
2022/11/24 01:55:54;;;;;;;10.10;2.55;;;;;;;;;;5014951;28;20034;-78
2022/11/24 01:58:23;;;;;;;8.57;2.40;;;;;;;;;;5014799;28;20069;-78
2022/11/24 02:00:48;;;;;;;8.20;2.58;;;;;;;;;;5014834;28;20028;-78
2022/11/24 02:03:17;;;;;;;10.80;3.00;;;;;;;;;;5014784;28;20022;-78
2022/11/24 02:05:59;;;;;;;10.80;2.67;;;;;;;;;;5015466;28;20038;-78
2022/11/24 02:08:33;;;;;;;10.52;2.55;;;;;;;;;;5015557;28;20021;-78
2022/11/24 02:11:00;;;;;;;;;;;;;;;;;;5014838;28;20075;-78
2022/11/24 02:13:25;;;;;;;7.25;2.75;;;;;;;;;;5014617;28;19910;-79
2022/11/24 02:15:52;;;;;;;8.40;2.53;;;;;;;;;;5015918;28;20026;-79
2022/11/24 02:18:17;;;;;;;10.38;2.95;;;;;;;;;;5014929;28;20026;-78
2022/11/24 02:20:42;;;;;;;11.68;2.45;;;;;;;;;;5015426;28;20053;-79
2022/11/24 02:23:23;;;;;;;11.43;2.50;;;;;;;;;;5015577;28;20045;-78
2022/11/24 02:26:05;;;;;;;9.48;3.70;;;;;;;;;;5014592;28;20041;-78
2022/11/24 02:28:30;;;;;;;7.32;2.15;;;;;;;;;;5030716;28;20178;-78
2022/11/24 02:30:57;;;;;;;7.35;2.50;;;;;;;;;;5014069;28;20128;-78
2022/11/24 02:33:24;;;;;;;8.77;2.25;;;;;;;;;;5015423;28;20079;-78
2022/11/24 02:35:50;;;;;;;6.00;2.15;;;;;;;;;;4997116;28;20128;-79
2022/11/24 02:38:15;;;;;;;7.10;2.10;;;;;;;;;;5014343;28;20040;-78
2022/11/24 02:40:44;;;;;;;8.57;2.47;;;;;;;;;;5013775;28;20129;-78
2022/11/24 02:43:13;;;;;;;5.00;2.20;;;;;;;;;;4997567;28;20069;-78
2022/11/24 02:45:38;;;;;;;7.00;2.20;;;;;;;;;;5015001;28;20472;-78
2022/11/24 02:48:05;;;;;;;8.73;2.38;;;;;;;;;;5014041;28;20095;-78
2022/11/24 02:50:30;;;;;;;5.75;2.38;;;;;;;;;;5015258;28;20034;-78
2022/11/24 02:52:55;;;;;;;9.32;2.13;;;;;;;;;;4997465;28;20045;-78
2022/11/24 02:55:22;;;;;;;4.72;1.95;;;;;;;;;;5013842;28;20100;-80
2022/11/24 02:57:47;;;;;;;6.13;2.15;;;;;;;;;;5013511;28;20140;-79
2022/11/24 03:00:13;;;;;;;6.00;2.35;;;;;;;;;;5015233;28;20034;-79
2022/11/24 03:02:39;;;;;;;8.77;2.80;;;;;;;;;;5013410;28;20030;-79
2022/11/24 03:05:05;;;;;;;6.30;2.38;;;;;;;;;;5014713;28;20033;-79
2022/11/24 03:07:30;;;;;;;5.85;1.90;;;;;;;;;;5013426;28;20030;-79
2022/11/24 03:09:56;;;;;;;7.30;2.20;;;;;;;;;;5013343;28;20188;-79
2022/11/24 03:12:21;;;;;;;6.97;2.00;;;;;;;;;;5013335;28;20038;-79
2022/11/24 03:14:46;;;;;;;6.97;2.05;;;;;;;;;;5014752;28;20056;-79
2022/11/24 03:17:12;;;;;;;10.27;2.30;;;;;;;;;;5013638;28;20037;-79
2022/11/24 03:19:37;;;;;;;6.68;2.40;;;;;;;;;;5013489;28;20361;-79
2022/11/24 03:22:02;;;;;;;6.03;1.98;;;;;;;;;;5014516;28;20112;-79
2022/11/24 03:24:28;;;;;;;4.35;2.20;;;;;;;;;;5014593;28;20346;-79
2022/11/24 03:26:53;;;;;;;7.50;2.35;;;;;;;;;;5014639;28;20383;-79
2022/11/24 03:29:19;;;;;;;7.03;2.63;;;;;;;;;;5012897;28;20034;-79
2022/11/24 03:31:44;;;;;;;10.15;2.15;;;;;;;;;;4996664;28;20034;-80
2022/11/24 03:34:09;;;;;;;8.55;2.10;;;;;;;;;;5013090;28;20037;-79
2022/11/24 03:36:35;;;;;;;6.13;1.92;;;;;;;;;;5014579;28;20026;-79
2022/11/24 03:39:00;;;;;;;8.50;2.00;;;;;;;;;;5012916;28;20483;-79
2022/11/24 03:41:25;;;;;;;9.88;2.03;;;;;;;;;;5012854;28;20042;-79
2022/11/24 03:43:51;;;;;;;7.28;1.95;;;;;;;;;;5014224;28;20492;-80
2022/11/24 03:46:17;;;;;;;8.73;2.33;;;;;;;;;;5013446;28;20049;-79
2022/11/24 03:48:42;;;;;;;6.72;1.70;;;;;;;;;;5012762;28;20038;-79
2022/11/24 03:51:08;;;;;;;6.15;2.10;;;;;;;;;;5014126;28;20062;-79
2022/11/24 03:53:34;;;;;;;6.18;1.73;;;;;;;;;;5012995;28;20033;-80
2022/11/24 03:56:00;;;;;;;6.03;2.00;;;;;;;;;;5012538;28;20030;-79
2022/11/24 03:58:26;;;;;;;6.43;2.15;;;;;;;;;;5013969;28;20026;-79
2022/11/24 04:00:53;;;;;;;8.10;2.17;;;;;;;;;;5013193;28;20026;-80
2022/11/24 04:03:19;;;;;;;4.78;2.00;;;;;;;;;;5012715;28;20022;-79
2022/11/24 04:05:45;;;;;;;5.88;1.80;;;;;;;;;;5012531;28;20061;-79
2022/11/24 04:08:10;;;;;;;8.77;2.45;;;;;;;;;;4995925;28;20038;-79
2022/11/24 04:10:37;;;;;;;5.75;1.75;;;;;;;;;;5013877;28;20034;-79
2022/11/24 04:13:04;;;;;;;6.13;2.20;;;;;;;;;;5012502;28;20065;-79
2022/11/24 04:15:30;;;;;;;7.35;1.90;;;;;;;;;;5028834;28;20484;-79
2022/11/24 04:17:56;;;;;;;6.55;1.90;;;;;;;;;;5012111;28;20121;-79
2022/11/24 04:20:22;;;;;;;8.20;2.33;;;;;;;;;;4995683;28;20041;-79
2022/11/24 04:22:49;;;;;;;9.30;1.98;;;;;;;;;;5012151;28;20029;-79
2022/11/24 04:25:16;;;;;;;7.88;2.00;;;;;;;;;;5011979;28;20017;-79
2022/11/24 04:27:42;;;;;;;7.32;2.08;;;;;;;;;;4996014;28;20026;-79
2022/11/24 04:30:08;;;;;;;9.93;2.15;;;;;;;;;;5011930;28;20088;-79
2022/11/24 04:32:33;;;;;;;10.07;2.13;;;;;;;;;;4995626;28;20092;-79
2022/11/24 04:34:58;;;;;;;7.25;2.17;;;;;;;;;;5012176;28;20030;-79
2022/11/24 04:37:24;;;;;;;11.43;2.00;;;;;;;;;;5012498;28;20121;-79
2022/11/24 04:39:49;;;;;;;8.38;2.22;;;;;;;;;;5011712;28;20046;-80
2022/11/24 04:42:14;;;;;;;5.82;2.00;;;;;;;;;;5012957;28;20034;-79
2022/11/24 04:44:40;;;;;;;5.75;1.77;;;;;;;;;;5011966;28;20057;-79
2022/11/24 04:47:05;;;;;;;8.95;2.15;;;;;;;;;;5011681;28;20037;-79
2022/11/24 04:49:31;;;;;;;7.57;2.15;;;;;;;;;;5013662;28;20032;-79
2022/11/24 04:51:56;;;;;;;5.60;1.80;;;;;;;;;;5011786;28;20050;-79
2022/11/24 04:54:22;;;;;;;9.65;2.25;;;;;;;;;;5013044;28;20412;-79
2022/11/24 04:56:51;;;;;;;4.43;2.00;;;;;;;;;;5011715;28;20038;-79
2022/11/24 04:59:17;;;;;;;6.93;2.20;;;;;;;;;;5014926;28;20083;-79
2022/11/24 05:01:43;;;;;;;8.98;2.10;;;;;;;;;;5015615;28;20029;-79
2022/11/24 05:04:13;;;;;;;8.38;2.45;;;;;;;;;;5015883;28;20041;-79
2022/11/24 05:06:39;;;;;;;10.02;2.17;;;;;;;;;;5032134;28;20022;-79
2022/11/24 05:09:05;;;;;;;7.80;2.13;;;;;;;;;;5015566;28;20030;-79
2022/11/24 05:11:31;;;;;;;9.30;2.17;;;;;;;;;;5015713;28;20109;-79
2022/11/24 05:13:56;;;;;;;7.45;2.15;;;;;;;;;;5015692;28;20101;-80
2022/11/24 05:16:22;;;;;;;7.07;2.28;;;;;;;;;;5017148;28;20037;-81
2022/11/24 05:18:47;;;;;;;8.60;2.17;;;;;;;;;;4984657;28;20030;-79
2022/11/24 05:21:13;;;;;;;7.45;1.88;;;;;;;;;;5014069;28;20117;-78
2022/11/24 05:23:38;;;;;;;8.45;2.58;;;;;;;;;;4998336;28;20153;-78
2022/11/24 05:26:04;;;;;;;9.85;2.50;;;;;;;;;;5014305;28;20088;-79
2022/11/24 05:28:30;;;;;;;13.80;2.33;;;;;;;;;;5014724;28;20042;-78
2022/11/24 05:31:02;;;;;;;12.40;2.72;;;;;;;;;;5014549;28;20032;-79
2022/11/24 05:33:28;;;;;;;9.23;2.53;;;;;;;;;;4998253;28;20105;-79
2022/11/24 05:35:54;;;;;;;14.23;2.67;;;;;;;;;;5014366;28;20113;-79
2022/11/24 05:38:21;;;;;;;16.38;2.90;;;;;;;;;;5015663;28;20061;-79
2022/11/24 05:40:47;;;;;;;10.20;2.72;;;;;;;;;;5014102;28;20062;-78
2022/11/24 05:43:14;;;;;;;17.88;3.53;;;;;;;;;;5014314;28;20057;-80
2022/11/24 05:45:39;;;;;;;10.88;3.45;;;;;;;;;;4997940;28;20034;-79
2022/11/24 05:48:06;;;;;;;12.27;2.75;;;;;;;;;;4997813;28;20026;-80
2022/11/24 05:50:32;;;;;;;12.13;2.75;;;;;;;;;;4997917;28;20092;-79
2022/11/24 05:53:06;;;;;;;13.75;3.03;;;;;;;;;;4997940;28;20384;-79
2022/11/24 05:55:32;;;;;;;11.98;2.05;;;;;;;;;;4998275;28;20121;-79
2022/11/24 05:58:02;;;;;;;7.82;2.53;;;;;;;;;;5015808;28;20464;-80
2022/11/24 06:00:29;;;;;;;19.02;3.00;;;;;;;;;;5015166;28;20056;-81
2022/11/24 06:02:55;;;;;;;13.13;3.15;;;;;;;;;;4997952;28;20077;-80
2022/11/24 06:05:21;;;;;;;22.27;2.80;;;;;;;;;;4998928;28;20120;-80
2022/11/24 06:07:49;;;;;;;14.70;3.03;;;;;;;;;;5016650;28;20117;-80
2022/11/24 06:10:18;;;;;;;9.82;2.50;;;;;;;;;;4998805;28;20060;-79
2022/11/24 06:12:44;;;;;;;13.57;2.60;;;;;;;;;;5015825;28;20026;-79
2022/11/24 06:15:10;;;;;;;9.48;2.15;;;;;;;;;;5000182;28;20025;-79
2022/11/24 06:17:37;;;;;;;10.95;2.25;;;;;;;;;;5000158;28;20033;-80
2022/11/24 06:20:06;;;;;;;8.18;2.17;;;;;;;;;;5015969;28;20207;-79
2022/11/24 06:22:31;;;;;;;9.48;2.30;;;;;;;;;;5016532;28;20034;-79
2022/11/24 06:24:57;;;;;;;5.80;1.90;;;;;;;;;;5016336;28;20381;-80
2022/11/24 06:27:22;;;;;;;5.93;1.83;;;;;;;;;;4998236;28;20064;-80
2022/11/24 06:29:48;;;;;;;6.47;1.98;;;;;;;;;;5017314;28;20056;-79
2022/11/24 06:32:13;;;;;;;6.40;2.10;;;;;;;;;;4999260;28;20456;-79
2022/11/24 06:34:41;;;;;;;6.80;1.58;;;;;;;;;;5015544;28;20046;-80
2022/11/24 06:37:06;;;;;;;5.95;1.58;;;;;;;;;;5015540;28;20036;-80
2022/11/24 06:39:31;;;;;;;4.90;1.60;;;;;;;;;;5016354;28;20054;-80
2022/11/24 06:41:57;;;;;;;3.72;1.30;;;;;;;;;;5014198;28;20042;-80
2022/11/24 06:44:22;;;;;;;6.43;1.50;;;;;;;;;;4998406;28;20196;-80
2022/11/24 06:46:48;;;;;;;5.28;1.52;;;;;;;;;;5013747;28;20396;-79
2022/11/24 06:49:13;;;;;;;4.22;1.60;;;;;;;;;;5014430;28;20026;-80
2022/11/24 06:51:39;;;;;;;3.55;1.27;;;;;;;;;;5015679;28;20116;-80
2022/11/24 06:54:08;;;;;;;4.50;1.42;;;;;;;;;;5015218;28;20472;-80
2022/11/24 06:56:34;;;;;;;4.38;1.33;;;;;;;;;;5014269;28;20507;-80
2022/11/24 06:59:00;;;;;;;2.50;1.15;;;;;;;;;;4997181;28;20026;-80
2022/11/24 07:01:27;;;;;;;7.20;1.95;;;;;;;;;;4997308;28;20036;-79
2022/11/24 07:03:53;;;;;;;4.65;1.40;;;;;;;;;;4997200;28;20029;-79
2022/11/24 07:06:19;;;;;;;3.53;1.15;;;;;;;;;;4997673;28;20473;-79
2022/11/24 07:08:45;;;;;;;4.03;1.25;;;;;;;;;;5014315;28;20105;-80
2022/11/24 07:11:14;;;;;;;2.63;1.20;;;;;;;;;;5013512;28;20555;-80
2022/11/24 07:13:41;;;;;;;3.72;1.27;;;;;;;;;;4997422;28;20053;-81
2022/11/24 07:16:24;;;;;;;3.53;1.20;;;;;;;;;;5015594;28;20050;-80
2022/11/24 07:18:51;;;;;;;3.22;1.40;;;;;;;;;;4997442;28;20028;-80
2022/11/24 07:21:18;;;;;;;3.88;1.20;;;;;;;;;;5013370;28;20029;-80
2022/11/24 07:23:47;;;;;;;3.03;1.40;;;;;;;;;;5015377;28;20026;-80
2022/11/24 07:26:12;;;;;;;3.63;1.40;;;;;;;;;;5013911;28;20104;-79
2022/11/24 07:28:37;;;;;;;4.72;1.20;;;;;;;;;;4996851;28;20089;-80
2022/11/24 07:31:11;;;;;;;3.20;1.30;;;;;;;;;;5013268;28;20042;-80
2022/11/24 07:33:36;;;;;;;3.80;1.37;;;;;;;;;;4997063;28;20030;-80
2022/11/24 07:36:06;;;;;;;3.10;1.35;;;;;;;;;;5014695;28;20275;-80
2022/11/24 07:38:32;;;;;;;4.93;1.38;;;;;;;;;;5013558;28;20475;-80
2022/11/24 07:41:00;;;;;;;2.83;1.45;;;;;;;;;;5014802;28;20112;-80
2022/11/24 07:43:25;;;;;;;4.07;1.20;;;;;;;;;;5013212;28;20104;-80
2022/11/24 07:45:51;;;;;;;3.78;1.60;;;;;;;;;;5014103;28;20089;-80
2022/11/24 07:48:16;;;;;;;2.55;1.17;;;;;;;;;;4996474;28;20068;-80
2022/11/24 07:50:42;;;;;;;2.60;1.20;;;;;;;;;;4997366;28;20205;-80
2022/11/24 07:53:07;;;;;;;4.97;1.20;;;;;;;;;;5014585;28;20034;-80
2022/11/24 07:55:32;;;;;;;5.50;1.30;;;;;;;;;;5012801;28;20037;-81
2022/11/24 07:57:59;;;;;;;4.80;1.38;;;;;;;;;;4996374;28;20038;-80
2022/11/24 08:00:26;;;;;;;2.95;1.48;;;;;;;;;;5012736;28;20053;-80
2022/11/24 08:02:51;;;;;;;3.40;1.58;;;;;;;;;;5014481;28;20121;-80
2022/11/24 08:05:17;;;;;;;3.40;1.23;;;;;;;;;;4996347;28;20190;-80
2022/11/24 08:07:42;;;;;;;2.05;1.20;;;;;;;;;;5012662;28;20037;-80
2022/11/24 08:10:08;;;;;;;2.60;1.35;;;;;;;;;;5013827;28;20032;-81
2022/11/24 08:12:33;;;;;;;1.95;1.10;;;;;;;;;;5011297;28;20467;-81
2022/11/24 08:14:58;;;;;;;2.13;1.40;;;;;;;;;;5013043;28;20030;-80
2022/11/24 08:17:24;;;;;;;2.55;1.35;;;;;;;;;;5013099;28;20340;-80
2022/11/24 08:19:49;;;;;;;2.63;1.30;;;;;;;;;;5013895;28;20060;-80
2022/11/24 08:22:15;;;;;;;2.47;1.45;;;;;;;;;;5014131;28;20469;-80
2022/11/24 08:24:45;;;;;;;3.28;1.65;;;;;;;;;;5013566;28;20104;-80
2022/11/24 08:27:11;;;;;;;4.32;1.30;;;;;;;;;;5012123;28;20054;-80
2022/11/24 08:29:37;;;;;;;2.08;1.23;;;;;;;;;;5013452;28;20087;-80
2022/11/24 08:32:02;;;;;;;1.98;1.25;;;;;;;;;;5013230;28;20428;-79
2022/11/24 08:34:28;;;;;;;2.38;1.55;;;;;;;;;;5013446;28;20112;-81
2022/11/24 08:36:53;;;;;;;2.60;1.10;;;;;;;;;;5012553;28;20085;-80
2022/11/24 08:39:19;;;;;;;3.67;1.40;;;;;;;;;;5012579;28;20049;-80
2022/11/24 08:41:44;;;;;;;6.32;1.30;;;;;;;;;;5014638;28;20034;-80
2022/11/24 08:44:13;;;;;;;2.15;1.35;;;;;;;;;;4979826;28;20393;-80
2022/11/24 08:46:39;;;;;;;1.95;1.58;;;;;;;;;;5013349;28;20037;-80
2022/11/24 08:49:05;;;;;;;2.10;1.30;;;;;;;;;;5011994;28;20477;-80
2022/11/24 08:51:30;;;;;;;4.95;1.17;;;;;;;;;;5012293;28;20072;-80
2022/11/24 08:53:57;;;;;;;2.95;1.35;;;;;;;;;;4995642;28;20053;-80
2022/11/24 08:56:24;;;;;;;3.35;1.40;;;;;;;;;;4995326;28;20080;-80
2022/11/24 08:58:49;;;;;;;1.95;1.40;;;;;;;;;;4995555;28;20496;-80
2022/11/24 09:01:16;;;;;;;2.78;1.45;;;;;;;;;;4979183;28;20037;-81
2022/11/24 09:03:43;;;;;;;2.97;1.50;;;;;;;;;;5011987;28;20028;-80
2022/11/24 09:06:08;;;;;;;2.95;1.40;;;;;;;;;;5012958;28;20108;-80
2022/11/24 09:08:35;;;;;;;2.60;1.42;;;;;;;;;;4995233;28;20139;-80
2022/11/24 09:11:06;;;;;;;5.00;1.30;;;;;;;;;;4995369;28;20033;-80
2022/11/24 09:13:31;;;;;;;2.75;1.40;;;;;;;;;;5012051;28;20030;-80
2022/11/24 09:16:05;;;;;;;3.42;1.65;;;;;;;;;;5011440;28;20452;-80
2022/11/24 09:18:30;;;;;;;1.65;1.42;;;;;;;;;;5011794;28;20049;-80
2022/11/24 09:21:09;;;;;;;4.50;1.70;;;;;;;;;;5013296;28;20532;-80
2022/11/24 09:23:36;;;;;;;2.63;1.42;;;;;;;;;;5013253;28;20025;-79
2022/11/24 09:26:29;;;;;;;3.55;1.85;;;;;;;;;;5012950;28;20188;-80
2022/11/24 09:28:56;;;;;;;1.88;1.42;;;;;;;;;;5025451;28;20037;-80
2022/11/24 09:31:24;;;;;;;3.42;1.50;;;;;;;;;;5011435;28;20065;-79
2022/11/24 09:33:49;;;;;;;1.83;1.35;;;;;;;;;;5011724;28;20048;-79
2022/11/24 09:36:15;;;;;;;3.50;1.77;;;;;;;;;;5012864;28;20447;-79
2022/11/24 09:38:40;;;;;;;3.97;1.40;;;;;;;;;;5011352;28;20033;-79
2022/11/24 09:41:31;;;;;;;2.22;1.45;;;;;;;;;;5011198;28;20115;-80
2022/11/24 09:44:22;;;;;;;2.65;1.23;;;;;;;;;;5011613;28;20033;-79
2022/11/24 09:46:59;;;;;;;2.58;1.30;;;;;;;;;;5016367;28;20033;-80
2022/11/24 09:49:39;;;;;;;2.90;1.30;;;;;;;;;;5016162;28;20026;-79
2022/11/24 09:52:09;;;;;;;6.20;1.65;;;;;;;;;;5016289;28;20033;-79
2022/11/24 09:54:36;;;;;;;2.50;1.25;;;;;;;;;;5016198;28;20026;-80
2022/11/24 09:57:02;;;;;;;4.03;1.58;;;;;;;;;;4998638;28;20030;-80
2022/11/24 09:59:28;;;;;;;3.35;1.60;;;;;;;;;;5015453;28;20112;-80
2022/11/24 10:01:55;;;;;;;6.50;1.50;;;;;;;;;;5016266;28;20110;-79
2022/11/24 10:04:33;;;;;;;3.05;1.40;;;;;;;;;;5014726;28;20038;-79
2022/11/24 10:07:04;;;;;;;7.80;1.50;;;;;;;;;;5014833;28;20076;-80
2022/11/24 10:09:48;;;;;;;5.13;1.55;;;;;;;;;;5014715;28;20465;-79
2022/11/24 10:12:26;;;;;;;3.05;1.20;;;;;;;;;;5015928;28;20041;-80
2022/11/24 10:15:17;;;;;;;3.42;1.55;;;;;;;;;;5015064;28;20026;-79
2022/11/24 10:18:28;;;;;;;4.80;1.88;;;;;;;;;;5014795;28;20057;-79
2022/11/24 10:21:14;;;;;;;6.00;1.65;;;;;;;;;;4999316;28;20065;-79
2022/11/24 10:23:48;;;;;;;2.85;1.30;;;;;;;;;;5014548;28;20033;-79
2022/11/24 10:26:19;;;;;;;3.15;1.40;;;;;;;;;;5015678;28;20030;-79
2022/11/24 10:28:52;;;;;;;5.10;1.60;;;;;;;;;;5014816;28;20540;-79
2022/11/24 10:31:32;;;;;;;3.00;1.40;;;;;;;;;;5030930;28;20034;-79
2022/11/24 10:34:01;;;;;;;5.05;1.42;;;;;;;;;;4998130;28;20030;-79
2022/11/24 10:36:36;;;;;;;4.90;1.75;;;;;;;;;;5014726;28;20168;-79
2022/11/24 10:39:31;;;;;;;4.65;1.73;;;;;;;;;;5015449;28;20029;-79
2022/11/24 10:42:01;;;;;;;2.53;1.45;;;;;;;;;;4997800;28;20038;-79
2022/11/24 10:44:27;;;;;;;8.75;1.70;;;;;;;;;;5015306;28;20083;-80
2022/11/24 10:46:52;;;;;;;3.63;1.48;;;;;;;;;;5015693;28;20057;-80
2022/11/24 10:49:24;;;;;;;4.18;1.63;;;;;;;;;;5014806;28;20037;-79
2022/11/24 10:51:49;;;;;;;5.63;1.80;;;;;;;;;;5014343;28;20029;-80
2022/11/24 10:54:20;;;;;;;4.57;1.60;;;;;;;;;;5015571;28;20026;-80
2022/11/24 10:56:47;;;;;;;5.13;1.52;;;;;;;;;;5013319;28;20021;-81
2022/11/24 10:59:23;;;;;;;3.22;1.35;;;;;;;;;;5015356;28;20028;-79
2022/11/24 11:01:48;;;;;;;4.63;1.60;;;;;;;;;;5015478;28;20433;-79
2022/11/24 11:04:19;;;;;;;4.38;1.63;;;;;;;;;;5013762;28;20036;-81
2022/11/24 11:06:44;;;;;;;5.90;1.80;;;;;;;;;;5013770;28;20087;-80
2022/11/24 11:09:13;;;;;;;4.35;1.38;;;;;;;;;;5014000;28;20030;-81
2022/11/24 11:11:39;;;;;;;3.33;1.50;;;;;;;;;;5015038;28;20030;-79
2022/11/24 11:14:06;;;;;;;3.25;1.35;;;;;;;;;;5013657;28;20362;-80
2022/11/24 11:16:50;;;;;;;3.90;1.55;;;;;;;;;;5013459;28;20401;-79
2022/11/24 11:19:38;;;;;;;6.47;1.83;;;;;;;;;;5013667;28;20018;-80
2022/11/24 11:22:10;;;;;;;3.90;1.50;;;;;;;;;;5015474;28;20113;-80
2022/11/24 11:24:37;;;;;;;7.45;1.50;;;;;;;;;;5015830;28;20030;-79
2022/11/24 11:27:18;;;;;;;3.55;1.25;;;;;;;;;;5015145;28;20041;-79
2022/11/24 11:29:44;;;;;;;3.55;1.42;;;;;;;;;;5013997;28;20113;-80
2022/11/24 11:32:26;;;;;;;5.78;1.90;;;;;;;;;;5013400;28;20030;-79
2022/11/24 11:34:54;;;;;;;3.65;1.40;;;;;;;;;;5030435;28;20058;-79
2022/11/24 11:37:22;;;;;;;4.18;1.38;;;;;;;;;;4997139;28;20056;-80
2022/11/24 11:39:50;;;;;;;4.20;1.65;;;;;;;;;;5013523;28;20076;-80
2022/11/24 11:42:32;;;;;;;6.00;1.67;;;;;;;;;;5014830;28;20034;-80
2022/11/24 11:45:10;;;;;;;4.80;1.52;;;;;;;;;;5014082;28;20036;-77
2022/11/24 11:47:45;;;;;;;2.53;1.20;;;;;;;;;;5030081;28;20025;-78
2022/11/24 11:50:16;;;;;;;4.38;1.30;;;;;;;;;;5013615;28;20028;-78
2022/11/24 11:53:03;;;;;;;7.63;2.47;;;;;;;;;;4997807;28;20453;-78
2022/11/24 11:55:34;;;;;;;8.68;2.53;;;;;;;;;;5014907;28;20088;-78
2022/11/24 11:58:16;;;;;;;5.63;1.70;;;;;;;;;;5014854;28;20128;-77
2022/11/24 12:01:20;;;;;;;10.73;1.80;;;;;;;;;;5013779;28;20041;-78
2022/11/24 12:03:52;;;;;;;6.23;1.70;;;;;;;;;;5012129;28;20037;-78
2022/11/24 12:06:36;;;;;;;5.40;1.67;;;;;;;;;;4996272;28;20117;-77
2022/11/24 12:09:07;;;;;;;6.18;1.60;;;;;;;;;;5014484;28;20034;-80
2022/11/24 12:11:48;;;;;;;6.00;1.92;;;;;;;;;;4996438;28;20132;-80
2022/11/24 12:14:41;;;;;;;10.35;2.03;;;;;;;;;;4996663;28;20032;-80
2022/11/24 12:17:25;;;;;;;7.45;1.60;;;;;;;;;;4996218;28;20109;-80
2022/11/24 12:19:59;;;;;;;9.68;2.17;;;;;;;;;;4996703;28;20076;-80
2022/11/24 12:22:43;;;;;;;;;;;;;;;;;;5013176;28;20110;-78
2022/11/24 12:25:39;;;;;;;7.85;2.08;;;;;;;;;;5014106;28;20286;-78
2022/11/24 12:28:14;;;;;;;5.55;1.88;;;;;;;;;;5014811;28;20116;-78
2022/11/24 12:30:49;;;;;;;6.47;1.77;;;;;;;;;;5013971;28;20022;-76
2022/11/24 12:33:21;;;;;;;6.68;1.88;;;;;;;;;;5012464;28;20025;-78
2022/11/24 12:36:02;;;;;;;4.32;1.98;;;;;;;;;;5012921;28;20038;-78
2022/11/24 12:38:46;;;;;;;7.32;1.90;;;;;;;;;;5014629;28;20497;-78
2022/11/24 12:41:14;;;;;;;;;;;;;;;;;;5014403;28;20046;-78
2022/11/24 12:43:46;;;;;;;6.00;1.63;;;;;;;;;;5014068;28;20289;-78
2022/11/24 12:46:18;;;;;;;7.20;1.70;;;;;;;;;;5012864;28;20093;-78
2022/11/24 12:48:52;;;;;;;6.07;1.90;;;;;;;;;;5014252;28;20037;-79
2022/11/24 12:51:20;;;;;;;10.10;2.10;;;;;;;;;;5013718;28;20564;-78
2022/11/24 12:53:47;;;;;;;4.45;1.60;;;;;;;;;;5028548;28;20029;-78
2022/11/24 12:56:15;;;;;;;4.32;1.80;;;;;;;;;;5012286;28;20058;-78
2022/11/24 12:58:59;;;;;;;8.10;1.90;;;;;;;;;;5012625;28;20072;-80
2022/11/24 13:01:30;;;;;;;;;;;;;;;;;;5012426;28;20026;-78
2022/11/24 13:04:17;;;;;;;5.43;1.90;;;;;;;;;;5012187;28;19922;-78
2022/11/24 13:06:55;;;;;;;7.50;1.80;;;;;;;;;;5013258;28;20153;-77
2022/11/24 13:09:20;;;;;;;4.70;1.52;;;;;;;;;;5012222;28;20084;-80
2022/11/24 13:11:48;;;;;;;5.70;1.85;;;;;;;;;;5013540;28;20500;-78
2022/11/24 13:14:35;;;;;;;5.28;1.92;;;;;;;;;;5013479;28;20072;-78
2022/11/24 13:17:02;;;;;;;6.22;1.80;;;;;;;;;;5011866;28;20018;-78
2022/11/24 13:19:35;;;;;;;4.65;1.75;;;;;;;;;;5013495;28;20102;-77
2022/11/24 13:22:06;;;;;;;8.05;2.08;;;;;;;;;;5032434;28;20087;-77
2022/11/24 13:24:35;;;;;;;7.07;1.95;;;;;;;;;;5032327;28;20113;-80
2022/11/24 13:27:27;;;;;;;6.32;2.10;;;;;;;;;;4999413;28;20033;-78
2022/11/24 13:29:52;;;;;;;5.10;1.90;;;;;;;;;;5032220;28;20029;-78
2022/11/24 13:32:18;;;;;;;4.57;1.67;;;;;;;;;;5015785;28;20022;-80
2022/11/24 13:34:48;;;;;;;4.97;1.67;;;;;;;;;;5017301;28;20033;-78
2022/11/24 13:37:26;;;;;;;6.40;2.42;;;;;;;;;;5033091;28;20022;-78
2022/11/24 13:39:54;;;;;;;6.28;1.90;;;;;;;;;;5018425;28;20053;-78
2022/11/24 13:42:23;;;;;;;5.35;1.80;;;;;;;;;;5032694;28;20116;-77
2022/11/24 13:45:02;;;;;;;4.13;1.60;;;;;;;;;;5032475;28;20377;-78
2022/11/24 13:47:29;;;;;;;7.93;2.10;;;;;;;;;;5016689;28;20041;-78
2022/11/24 13:49:54;;;;;;;5.28;1.67;;;;;;;;;;5016778;28;20087;-78
2022/11/24 13:52:35;;;;;;;5.07;1.88;;;;;;;;;;5019768;28;20029;-79
2022/11/24 13:55:20;;;;;;;4.68;1.80;;;;;;;;;;5033999;28;20030;-79
2022/11/24 13:58:03;;;;;;;7.70;2.00;;;;;;;;;;5003498;28;20491;-79
2022/11/24 14:00:34;;;;;;;5.68;1.92;;;;;;;;;;5017827;28;20056;-78
2022/11/24 14:03:03;;;;;;;6.95;2.20;;;;;;;;;;5001675;28;20448;-79
2022/11/24 14:05:38;;;;;;;7.28;1.45;;;;;;;;;;5017993;28;20040;-79
2022/11/24 14:08:08;;;;;;;5.93;1.92;;;;;;;;;;5016362;28;20038;-78
2022/11/24 14:10:35;;;;;;;6.15;2.00;;;;;;;;;;5032426;28;20030;-78
2022/11/24 14:13:22;;;;;;;7.68;2.55;;;;;;;;;;4998800;28;20054;-78
2022/11/24 14:16:18;;;;;;;6.55;2.05;;;;;;;;;;5019486;28;20109;-78
2022/11/24 14:18:48;;;;;;;7.53;2.03;;;;;;;;;;5025508;28;20038;-79
2022/11/24 14:21:16;;;;;;;6.03;1.83;;;;;;;;;;5041830;28;20034;-77
2022/11/24 14:23:53;;;;;;;5.03;1.73;;;;;;;;;;5022744;28;20034;-78
2022/11/24 14:26:46;;;;;;;6.38;2.10;;;;;;;;;;5020697;28;20033;-77
2022/11/24 14:29:23;;;;;;;4.28;2.00;;;;;;;;;;5017056;28;20170;-78
2022/11/24 14:31:53;;;;;;;5.93;1.88;;;;;;;;;;5032831;28;20028;-77
2022/11/24 14:34:20;;;;;;;4.38;1.73;;;;;;;;;;5032139;28;20033;-78
2022/11/24 14:36:47;;;;;;;5.53;1.83;;;;;;;;;;5017831;28;20022;-80
2022/11/24 14:39:17;;;;;;;4.63;1.85;;;;;;;;;;5015167;28;20022;-80
2022/11/24 14:41:51;;;;;;;6.28;1.80;;;;;;;;;;5031334;28;20128;-77
2022/11/24 14:44:25;;;;;;;5.35;2.03;;;;;;;;;;5015272;28;20041;-80
2022/11/24 14:47:02;;;;;;;6.47;1.90;;;;;;;;;;5014747;28;20127;-80
2022/11/24 14:49:28;;;;;;;10.27;2.30;;;;;;;;;;5015699;28;20036;-79
2022/11/24 14:51:57;;;;;;;6.57;1.98;;;;;;;;;;5015574;28;20042;-80
2022/11/24 14:54:23;;;;;;;4.10;1.50;;;;;;;;;;5015217;28;20022;-79
2022/11/24 14:57:05;;;;;;;6.28;2.10;;;;;;;;;;5016569;28;20018;-80